sensor_id;sensor_type;location;lat;lon;timestamp;P1;durP1;ratioP1;P2;durP2;ratioP2
62052;SDS011;48300;52.902;6.534;2023-03-21T17:44:19;21.27;;;10.85;;
62052;SDS011;48300;52.902;6.534;2023-03-21T17:46:46;21.92;;;11.07;;
62052;SDS011;48300;52.902;6.534;2023-03-21T17:49:13;18.70;;;11.70;;
62052;SDS011;48300;52.902;6.534;2023-03-21T17:51:40;20.77;;;12.87;;
62052;SDS011;48300;52.902;6.534;2023-03-21T17:54:06;23.85;;;12.43;;
62052;SDS011;48300;52.902;6.534;2023-03-21T17:56:33;20.30;;;12.35;;
62052;SDS011;48300;52.902;6.534;2023-03-21T17:59:03;22.38;;;12.05;;
62052;SDS011;48300;52.902;6.534;2023-03-21T18:01:29;25.73;;;13.85;;
62052;SDS011;48300;52.902;6.534;2023-03-21T18:03:56;23.10;;;12.27;;
62052;SDS011;48300;52.902;6.534;2023-03-21T18:06:23;23.30;;;12.18;;
62052;SDS011;48300;52.902;6.534;2023-03-21T18:08:50;22.73;;;12.50;;
62052;SDS011;48300;52.902;6.534;2023-03-21T18:11:17;24.02;;;13.50;;
62052;SDS011;48300;52.902;6.534;2023-03-21T18:13:44;29.02;;;13.45;;
62052;SDS011;48300;52.902;6.534;2023-03-21T18:16:12;22.92;;;13.20;;
62052;SDS011;48300;52.902;6.534;2023-03-21T18:18:39;26.00;;;14.05;;
62052;SDS011;48300;52.902;6.534;2023-03-21T18:21:05;25.17;;;14.02;;
62052;SDS011;48300;52.902;6.534;2023-03-21T18:23:35;30.60;;;13.75;;
62052;SDS011;48300;52.902;6.534;2023-03-21T18:26:01;24.33;;;13.68;;
62052;SDS011;48300;52.902;6.534;2023-03-21T18:28:28;23.10;;;13.88;;
62052;SDS011;48300;52.902;6.534;2023-03-21T18:30:54;28.63;;;13.43;;
62052;SDS011;48300;52.902;6.534;2023-03-21T18:33:21;32.17;;;14.32;;
62052;SDS011;48300;52.902;6.534;2023-03-21T18:35:47;19.83;;;12.60;;
62052;SDS011;48300;52.902;6.534;2023-03-21T18:38:14;27.48;;;13.73;;
62052;SDS011;48300;52.902;6.534;2023-03-21T18:40:40;28.00;;;14.57;;
62052;SDS011;48300;52.902;6.534;2023-03-21T18:43:06;26.05;;;14.02;;
62052;SDS011;48300;52.902;6.534;2023-03-21T18:45:33;22.92;;;13.38;;
62052;SDS011;48300;52.902;6.534;2023-03-21T18:47:59;29.98;;;13.38;;
62052;SDS011;48300;52.902;6.534;2023-03-21T18:50:25;23.25;;;12.65;;
62052;SDS011;48300;52.902;6.534;2023-03-21T18:52:52;24.42;;;12.55;;
62052;SDS011;48300;52.902;6.534;2023-03-21T18:55:18;30.38;;;13.35;;
62052;SDS011;48300;52.902;6.534;2023-03-21T18:57:45;21.45;;;12.98;;
62052;SDS011;48300;52.902;6.534;2023-03-21T19:00:12;23.15;;;12.32;;
62052;SDS011;48300;52.902;6.534;2023-03-21T19:02:43;23.92;;;12.80;;
62052;SDS011;48300;52.902;6.534;2023-03-21T19:05:10;19.33;;;12.20;;
62052;SDS011;48300;52.902;6.534;2023-03-21T19:07:36;25.23;;;12.70;;
62052;SDS011;48300;52.902;6.534;2023-03-21T19:10:03;26.05;;;13.93;;
62052;SDS011;48300;52.902;6.534;2023-03-21T19:12:31;27.33;;;12.55;;
62052;SDS011;48300;52.902;6.534;2023-03-21T19:15:01;23.10;;;12.43;;
62052;SDS011;48300;52.902;6.534;2023-03-21T19:17:27;22.95;;;12.88;;
62052;SDS011;48300;52.902;6.534;2023-03-21T19:19:53;21.23;;;12.60;;
62052;SDS011;48300;52.902;6.534;2023-03-21T19:22:19;25.83;;;13.52;;
62052;SDS011;48300;52.902;6.534;2023-03-21T19:24:46;21.13;;;12.93;;
62052;SDS011;48300;52.902;6.534;2023-03-21T19:27:12;21.38;;;13.32;;
62052;SDS011;48300;52.902;6.534;2023-03-21T19:29:38;22.38;;;13.32;;
62052;SDS011;48300;52.902;6.534;2023-03-21T19:32:05;19.13;;;11.43;;
62052;SDS011;48300;52.902;6.534;2023-03-21T19:34:32;23.15;;;11.98;;
62052;SDS011;48300;52.902;6.534;2023-03-21T19:36:58;28.73;;;12.13;;
62052;SDS011;48300;52.902;6.534;2023-03-21T19:39:25;26.15;;;11.38;;
62052;SDS011;48300;52.902;6.534;2023-03-21T19:41:51;23.73;;;11.82;;
62052;SDS011;48300;52.902;6.534;2023-03-21T19:44:18;19.88;;;11.80;;
62052;SDS011;48300;52.902;6.534;2023-03-21T19:46:46;21.60;;;11.50;;
62052;SDS011;48300;52.902;6.534;2023-03-21T19:49:13;20.15;;;11.40;;
62052;SDS011;48300;52.902;6.534;2023-03-21T19:51:44;20.80;;;11.93;;
62052;SDS011;48300;52.902;6.534;2023-03-21T19:54:10;19.80;;;11.35;;
62052;SDS011;48300;52.902;6.534;2023-03-21T19:56:36;22.50;;;12.23;;
62052;SDS011;48300;52.902;6.534;2023-03-21T19:59:02;21.00;;;11.98;;
62052;SDS011;48300;52.902;6.534;2023-03-21T20:01:29;20.10;;;11.18;;
62052;SDS011;48300;52.902;6.534;2023-03-21T20:03:56;20.92;;;10.93;;
62052;SDS011;48300;52.902;6.534;2023-03-21T20:06:22;19.50;;;10.52;;
62052;SDS011;48300;52.902;6.534;2023-03-21T20:08:49;18.10;;;10.63;;
62052;SDS011;48300;52.902;6.534;2023-03-21T20:11:16;16.52;;;10.27;;
62052;SDS011;48300;52.902;6.534;2023-03-21T20:13:42;16.80;;;10.20;;
62052;SDS011;48300;52.902;6.534;2023-03-21T20:16:10;18.92;;;10.55;;
62052;SDS011;48300;52.902;6.534;2023-03-21T20:18:36;23.33;;;10.98;;
62052;SDS011;48300;52.902;6.534;2023-03-21T20:21:04;18.23;;;10.00;;
62052;SDS011;48300;52.902;6.534;2023-03-21T20:23:30;22.60;;;10.38;;
62052;SDS011;48300;52.902;6.534;2023-03-21T20:25:59;18.70;;;11.00;;
62052;SDS011;48300;52.902;6.534;2023-03-21T20:28:26;19.98;;;11.52;;
62052;SDS011;48300;52.902;6.534;2023-03-21T20:30:54;20.75;;;10.68;;
62052;SDS011;48300;52.902;6.534;2023-03-21T20:33:22;17.55;;;11.13;;
62052;SDS011;48300;52.902;6.534;2023-03-21T20:35:53;22.65;;;11.35;;
62052;SDS011;48300;52.902;6.534;2023-03-21T20:38:20;21.45;;;11.15;;
62052;SDS011;48300;52.902;6.534;2023-03-21T20:40:46;19.63;;;11.40;;
62052;SDS011;48300;52.902;6.534;2023-03-21T20:43:12;19.17;;;11.20;;
62052;SDS011;48300;52.902;6.534;2023-03-21T20:45:38;17.67;;;10.75;;
62052;SDS011;48300;52.902;6.534;2023-03-21T20:48:04;17.27;;;10.48;;
62052;SDS011;48300;52.902;6.534;2023-03-21T20:50:31;20.88;;;11.30;;
62052;SDS011;48300;52.902;6.534;2023-03-21T20:52:59;21.20;;;10.57;;
62052;SDS011;48300;52.902;6.534;2023-03-21T20:55:26;22.10;;;10.45;;
62052;SDS011;48300;52.902;6.534;2023-03-21T20:57:52;21.23;;;10.63;;
62052;SDS011;48300;52.902;6.534;2023-03-21T21:00:19;23.02;;;11.50;;
62052;SDS011;48300;52.902;6.534;2023-03-21T21:02:46;19.27;;;11.05;;
62052;SDS011;48300;52.902;6.534;2023-03-21T21:05:13;21.80;;;11.45;;
62052;SDS011;48300;52.902;6.534;2023-03-21T21:07:40;20.77;;;11.77;;
62052;SDS011;48300;52.902;6.534;2023-03-21T21:10:08;23.73;;;12.10;;
62052;SDS011;48300;52.902;6.534;2023-03-21T21:12:36;18.10;;;11.60;;
62052;SDS011;48300;52.902;6.534;2023-03-21T21:15:04;20.40;;;11.90;;
62052;SDS011;48300;52.902;6.534;2023-03-21T21:17:31;21.65;;;12.18;;
62052;SDS011;48300;52.902;6.534;2023-03-21T21:19:57;24.55;;;12.27;;
62052;SDS011;48300;52.902;6.534;2023-03-21T21:22:26;23.67;;;12.27;;
62052;SDS011;48300;52.902;6.534;2023-03-21T21:24:52;24.70;;;12.90;;
62052;SDS011;48300;52.902;6.534;2023-03-21T21:27:19;24.85;;;13.20;;
62052;SDS011;48300;52.902;6.534;2023-03-21T21:29:45;23.10;;;12.02;;
62052;SDS011;48300;52.902;6.534;2023-03-21T21:34:47;26.25;;;13.45;;
62052;SDS011;48300;52.902;6.534;2023-03-21T21:37:17;26.45;;;13.57;;
62052;SDS011;48300;52.902;6.534;2023-03-21T21:39:43;29.42;;;14.02;;
62052;SDS011;48300;52.902;6.534;2023-03-21T21:42:09;24.50;;;13.75;;
62052;SDS011;48300;52.902;6.534;2023-03-21T21:44:35;23.08;;;14.10;;
62052;SDS011;48300;52.902;6.534;2023-03-21T21:47:04;25.13;;;13.75;;
62052;SDS011;48300;52.902;6.534;2023-03-21T21:49:33;27.92;;;14.15;;
62052;SDS011;48300;52.902;6.534;2023-03-21T21:51:59;23.88;;;14.23;;
62052;SDS011;48300;52.902;6.534;2023-03-21T21:54:28;25.23;;;14.07;;
62052;SDS011;48300;52.902;6.534;2023-03-21T21:56:58;27.38;;;14.93;;
62052;SDS011;48300;52.902;6.534;2023-03-21T21:59:24;24.85;;;13.90;;
62052;SDS011;48300;52.902;6.534;2023-03-21T22:01:50;24.02;;;13.95;;
62052;SDS011;48300;52.902;6.534;2023-03-21T22:04:17;25.10;;;14.48;;
62052;SDS011;48300;52.902;6.534;2023-03-21T22:06:49;24.60;;;14.02;;
62052;SDS011;48300;52.902;6.534;2023-03-21T22:09:15;22.13;;;13.68;;
62052;SDS011;48300;52.902;6.534;2023-03-21T22:11:41;19.75;;;12.77;;
62052;SDS011;48300;52.902;6.534;2023-03-21T22:14:07;23.90;;;12.63;;
62052;SDS011;48300;52.902;6.534;2023-03-21T22:16:33;20.73;;;11.60;;
62052;SDS011;48300;52.902;6.534;2023-03-21T22:19:00;16.65;;;11.25;;
62052;SDS011;48300;52.902;6.534;2023-03-21T22:21:26;19.98;;;12.02;;
62052;SDS011;48300;52.902;6.534;2023-03-21T22:23:52;18.85;;;10.27;;
62052;SDS011;48300;52.902;6.534;2023-03-21T22:26:18;20.92;;;10.40;;
62052;SDS011;48300;52.902;6.534;2023-03-21T22:28:44;17.98;;;10.73;;
62052;SDS011;48300;52.902;6.534;2023-03-21T22:31:11;19.10;;;10.77;;
62052;SDS011;48300;52.902;6.534;2023-03-21T22:33:38;17.30;;;10.05;;
62052;SDS011;48300;52.902;6.534;2023-03-21T22:36:04;23.38;;;11.05;;
62052;SDS011;48300;52.902;6.534;2023-03-21T22:38:30;20.45;;;10.90;;
62052;SDS011;48300;52.902;6.534;2023-03-21T22:40:59;19.58;;;11.13;;
62052;SDS011;48300;52.902;6.534;2023-03-21T22:43:26;22.35;;;11.15;;
62052;SDS011;48300;52.902;6.534;2023-03-21T22:45:53;17.10;;;10.48;;
62052;SDS011;48300;52.902;6.534;2023-03-21T22:48:19;22.77;;;11.82;;
62052;SDS011;48300;52.902;6.534;2023-03-21T22:50:46;18.67;;;10.60;;
62052;SDS011;48300;52.902;6.534;2023-03-21T22:53:12;16.02;;;9.45;;
62052;SDS011;48300;52.902;6.534;2023-03-21T22:55:38;22.17;;;10.60;;
62052;SDS011;48300;52.902;6.534;2023-03-21T22:58:04;18.95;;;10.27;;
62052;SDS011;48300;52.902;6.534;2023-03-21T23:00:31;17.27;;;9.55;;
62052;SDS011;48300;52.902;6.534;2023-03-21T23:02:57;16.67;;;8.55;;
62052;SDS011;48300;52.902;6.534;2023-03-21T23:05:24;13.02;;;8.32;;
62052;SDS011;48300;52.902;6.534;2023-03-21T23:07:50;19.05;;;7.57;;
62052;SDS011;48300;52.902;6.534;2023-03-21T23:10:17;12.88;;;6.93;;
62052;SDS011;48300;52.902;6.534;2023-03-21T23:12:43;12.18;;;6.43;;
62052;SDS011;48300;52.902;6.534;2023-03-21T23:15:09;14.35;;;7.00;;
62052;SDS011;48300;52.902;6.534;2023-03-21T23:17:36;14.35;;;5.93;;
62052;SDS011;48300;52.902;6.534;2023-03-21T23:20:02;12.65;;;6.18;;
62052;SDS011;48300;52.902;6.534;2023-03-21T23:24:57;11.20;;;5.82;;
62052;SDS011;48300;52.902;6.534;2023-03-21T23:27:23;14.90;;;6.43;;
62052;SDS011;48300;52.902;6.534;2023-03-21T23:29:49;17.00;;;6.32;;
62052;SDS011;48300;52.902;6.534;2023-03-21T23:32:16;16.50;;;5.72;;
62052;SDS011;48300;52.902;6.534;2023-03-21T23:34:43;13.05;;;5.07;;
62052;SDS011;48300;52.902;6.534;2023-03-21T23:37:09;12.05;;;5.40;;
62052;SDS011;48300;52.902;6.534;2023-03-21T23:39:36;13.25;;;5.22;;
62052;SDS011;48300;52.902;6.534;2023-03-21T23:42:02;13.30;;;5.05;;
62052;SDS011;48300;52.902;6.534;2023-03-21T23:44:29;10.27;;;5.30;;
62052;SDS011;48300;52.902;6.534;2023-03-21T23:46:55;14.70;;;5.28;;
62052;SDS011;48300;52.902;6.534;2023-03-21T23:49:21;15.63;;;5.28;;
62052;SDS011;48300;52.902;6.534;2023-03-21T23:51:47;10.40;;;4.80;;
62052;SDS011;48300;52.902;6.534;2023-03-21T23:54:14;11.93;;;5.60;;
62052;SDS011;48300;52.902;6.534;2023-03-21T23:56:40;20.40;;;5.25;;
62052;SDS011;48300;52.902;6.534;2023-03-21T23:59:06;16.13;;;5.07;;
